• Join FlightAware (Why Join?)
  • Login
  • US Flag 
04:54PM EDT


 

Airport Tracker/Info


-or-


 

Live Flight TrackerFlight Track Log ✈ ADR705 ✈ 14-Jul-2013 ✈ LATI / TIA - LJLJ / LJU

Flight Track Log - Related Links

Times and Time Zones

All times are in EDT time to prevent confusion due to time zone crossing. See the ADR705 flight status page for this flight to view local times or setup timezone preferences in your user account.

Time Position Orientation Groundspeed Altitude Reporting Facility
EDT Latitude Longitude Course Direction KTS MPH feet Rate Location/Type
09:35AM 41.8619 19.2755 324° Northwest  Level Estimated
09:36AM 41.9511 19.1857 323° Northwest  Level Estimated
09:37AM 42.0402 19.0957 323° Northwest  Level Estimated
09:38AM 42.1293 19.0054 323° Northwest  Level Estimated
09:39AM 42.2183 18.9149 323° Northwest  Level Estimated
09:40AM 42.3072 18.8241 323° Northwest  Level Estimated
09:41AM 42.3961 18.7331 323° Northwest  Level Estimated
09:42AM 42.4849 18.6418 323° Northwest  Level Estimated
09:43AM 42.5736 18.5503 323° Northwest  Level Estimated
09:44AM 42.6623 18.4585 323° Northwest  Level Estimated
09:45AM 42.7508 18.3664 323° Northwest  Level Estimated
09:46AM 42.8393 18.2740 323° Northwest  Level Estimated
09:47AM 42.9277 18.1814 323° Northwest  Level Estimated
09:48AM 43.0161 18.0886 322° Northwest  Level Estimated
09:49AM 43.1044 17.9954 322° Northwest  Level Estimated
09:50AM 43.1926 17.9021 322° Northwest  Level Estimated
09:51AM 43.2807 17.8084 322° Northwest  Level Estimated
09:52AM 43.3687 17.7144 322° Northwest  Level Estimated
09:53AM 43.4567 17.6202 322° Northwest  Level Estimated
09:54AM 43.5446 17.5257 322° Northwest  Level Estimated
09:55AM 43.6324 17.4310 322° Northwest  Level Estimated
09:56AM 43.7201 17.3359 322° Northwest  Level Estimated
09:57AM 43.8078 17.2406 322° Northwest  Level Estimated
09:58AM 43.8953 17.1450 322° Northwest  Level Estimated
09:59AM 43.9828 17.0491 322° Northwest  Level Estimated
10:00AM 44.0702 16.9529 322° Northwest  Level Estimated
10:01AM 44.1576 16.8565 322° Northwest  Level Estimated
10:02AM 44.2448 16.7597 322° Northwest  Level Estimated
10:03AM 44.3320 16.6627 321° Northwest  Level Estimated
10:04AM 44.4191 16.5654 321° Northwest  Level Estimated
10:05AM 44.5061 16.4678 321° Northwest  Level Estimated
10:06AM 44.5930 16.3699 321° Northwest  Level Estimated
10:07AM 44.6798 16.2717 321° Northwest  Level Estimated
10:08AM 44.7666 16.1732 321° Northwest  Level Estimated
10:09AM 44.8533 16.0744 321° Northwest  Level Estimated
10:10AM 44.9398 15.9753 321° Northwest  Level Estimated
10:11AM 45.0263 15.8759 321° Northwest  Level Estimated
10:12AM 45.1128 15.7763 321° Northwest  Level Estimated
10:13AM 45.1991 15.6763 321° Northwest  Level Estimated
10:14AM 45.2853 15.5760 321° Northwest  Level Estimated
10:15AM 45.3714 15.4754 321° Northwest  Level Estimated
10:16AM 45.4575 15.3745 321° Northwest  Level Estimated
10:17AM 45.5435 15.2733 321° Northwest  Level Estimated
10:18AM 45.6294 15.1718 320° Northwest  Level Estimated
10:19AM 45.7151 15.0700 320° Northwest  Level Estimated
10:20AM 45.8008 14.9678 320° Northwest  Level Estimated
10:21AM 45.8865 14.8654 320° Northwest  Level Estimated
10:22AM 45.9720 14.7626 320° Northwest  Level Estimated
10:23AM 46.0574 14.6595 320° Northwest  Level Estimated
10:24AM 46.1427 14.5561 320° Northwest  Level Estimated
10:25AM 46.2237 14.4576 320° Northwest  Level Estimated
10:26AM 46.2237 14.4576 170° South  Level Estimated
10:27AM 46.2237 14.4576 170° South  Level Estimated
10:28AM 46.2237 14.4576 170° South  Level Estimated
10:29AM 46.2237 14.4576 170° South  Level Estimated
10:30AM 46.2237 14.4576 170° South  Level Estimated
10:31AM 46.2237 14.4576 170° South  Level Estimated
10:32AM 46.2237 14.4576 170° South  Level Estimated
10:33AM 46.2237 14.4576 170° South  Level Estimated
10:34AM 46.2237 14.4576 170° South  Level Estimated
10:35AM 46.2237 14.4576 170° South  Level Estimated
10:36AM 46.2237 14.4576 170° South  Level Estimated
10:37AM 46.2237 14.4576 170° South  Level Estimated
10:38AM 46.2237 14.4576 170° South  Level Estimated